Latest Weather Observations for Point Perpendicular

IDN60801

Issued at 10:03 pm EST Saturday 1 October 2016 (issued every 30 minutes, with the page automatically refreshed every 10 minutes)

About weather observations | Map of weather stations | Latest weather observations for NSW | Other Formats
Station Details ID: 068151 Name: POINT PERPENDICULAR AWS Lat: -35.09 Lon: 150.80 Height: 85.0 m
Data from the previous 72 hours. | See also: Recent months at Point Perpendicular
Date/Time
EST
Temp
°C
App
Temp
°C
Dew
Point
°C
Rel
Hum
%
Delta-T
°C
Wind Press
QNH
hPa
Press
MSL
hPa
Rain since
9am
mm
Dir  Spd
km/h
Gust
km/h
Spd
kts
Gust
kts
01/10:00pm 15.5 13.2 5.7 52 4.7 W 7 19 4 10 1009.8 1009.7 0.0
01/09:30pm 15.5 12.8 5.4 51 4.8 W 9 19 5 10 1009.5 1009.4 0.0
01/09:00pm 15.6 12.8 5.2 50 5.0 W 9 15 5 8 1009.4 1009.3 0.0
01/08:30pm 15.9 13.1 5.2 49 5.1 W 9 17 5 9 1009.1 1009.0 0.0
01/08:00pm 16.0 13.0 5.9 51 4.9 W 11 19 6 10 1008.6 1008.5 0.0
01/07:30pm 15.8 12.6 6.8 55 4.4 W 13 26 7 14 1008.2 1008.1 0.0
01/07:00pm 15.8 12.9 6.5 54 4.6 W 11 19 6 10 1007.5 1007.4 0.0
01/06:30pm 16.0 12.8 7.0 55 4.5 W 13 28 7 15 1006.9 1006.7 0.0
01/06:00pm 16.3 13.6 7.5 56 4.4 W 11 30 6 16 1006.5 1006.3 0.0
01/05:30pm 17.0 14.7 7.6 54 4.7 W 9 22 5 12 1006.2 1006.0 0.0
01/05:00pm 17.4 13.5 7.2 51 5.1 W 17 32 9 17 1005.3 1005.1 0.0
01/04:30pm 17.9 13.8 6.4 47 5.7 W 17 44 9 24 1004.5 1004.3 0.0
01/04:00pm 18.1 14.6 7.2 49 5.5 W 15 26 8 14 1004.1 1003.9 0.0
01/03:30pm 18.4 15.7 7.2 48 5.7 W 11 22 6 12 1003.9 1003.7 0.0
01/03:00pm 18.9 15.4 7.0 46 6.0 W 15 32 8 17 1003.6 1003.4 0.0
01/02:30pm 18.9 15.5 7.7 48 5.7 W 15 30 8 16 1003.5 1003.3 0.0
01/02:00pm 19.0 15.2 7.4 47 5.9 W 17 28 9 15 1003.3 1003.1 0.0
01/01:30pm 18.9 14.6 7.0 46 6.0 W 19 35 10 19 1002.9 1002.7 0.0
01/01:00pm 18.9 15.5 7.7 48 5.8 W 15 30 8 16 1002.9 1002.7 0.0
01/12:30pm 18.9 16.2 8.8 52 5.3 W 13 30 7 16 1003.2 1003.0 0.0
01/12:00pm 18.1 14.5 8.4 53 5.0 W 17 37 9 20 1003.0 1002.8 0.0
01/11:30am 18.7 15.7 7.8 49 5.6 W 13 35 7 19 1003.0 1002.8 0.0
01/11:00am 18.2 15.5 9.0 55 4.8 W 13 30 7 16 1003.2 1003.0 0.0
01/10:30am 17.9 15.1 8.5 54 4.9 W 13 30 7 16 1003.3 1003.1 0.0
01/10:00am 17.8 15.3 8.1 53 5.0 W 11 20 6 11 1003.3 1003.1 0.0
01/09:30am 17.4 14.0 9.1 58 4.3 WNW 17 33 9 18 1003.2 1003.1 0.0
01/09:00am 17.3 14.9 8.7 57 4.5 W 11 24 6 13 1003.6 1003.5 0.0
01/08:30am 16.3 14.3 8.8 61 3.9 W 9 24 5 13 1003.5 1003.4 0.0
01/08:00am 15.7 13.2 8.4 62 3.7 W 11 24 6 13 1003.1 1003.0 0.0
01/07:30am 15.5 12.8 7.5 59 4.0 NW 11 20 6 11 1003.2 1003.1 0.0
01/07:00am 14.7 12.7 7.3 61 3.7 NW 7 15 4 8 1002.9 1002.8 0.0
01/06:30am 14.3 12.6 7.6 64 3.3 W 6 13 3 7 1002.8 1002.7 0.0
01/06:00am 13.7 12.8 7.9 68 2.9 NNW 2 7 1 4 1002.3 1002.2 0.0
01/05:30am 11.7 9.7 7.2 74 2.2 NE 7 11 4 6 1001.8 1001.7 0.0
01/05:00am 13.4 10.8 7.8 69 2.8 NNE 11 13 6 7 1001.3 1001.2 0.0
01/04:30am 13.4 11.7 7.6 68 2.9 W 6 11 3 6 1000.5 1000.3 0.0
01/04:00am 13.2 11.5 7.6 69 2.8 WSW 6 9 3 5 1000.2 1000.0 0.0
01/03:30am 13.0 11.9 6.8 66 3.0 W 2 4 1 2 999.9 999.7 0.0
01/03:00am 12.7 10.9 7.0 68 2.8 NNW 6 7 3 4 999.7 999.5 0.0
01/02:30am 11.5 9.4 5.6 67 2.7 N 6 9 3 5 999.9 999.7 0.0
01/02:00am 13.1 11.2 6.5 64 3.2 E 6 7 3 4 1000.0 999.8 0.0
01/01:30am 13.1 11.1 6.2 63 3.3 WNW 6 9 3 5 999.9 999.7 0.0
01/01:00am 13.0 10.8 6.1 63 3.3 W 7 17 4 9 999.9 999.7 0.0
01/12:30am 12.7 10.1 6.1 64 3.1 WNW 9 13 5 7 1000.2 1000.0 0.0
01/12:00am 12.9 10.8 6.0 63 3.3 W 6 20 3 11 1000.4 1000.2 0.0
 
Date/Time
EST
Temp
°C
App
Temp
°C
Dew
Point
°C
Rel
Hum
%
Delta-T
°C
Wind Press
QNH
hPa
Press
MSL
hPa
Rain since
9am
mm
Dir  Spd
km/h
Gust
km/h
Spd
kts
Gust
kts
30/11:30pm 13.1 11.1 6.2 63 3.3 W 6 9 3 5 1000.7 1000.5 0.0
30/11:00pm 13.5 10.8 5.4 58 3.8 W 9 22 5 12 1000.8 1000.6 0.0
30/10:30pm 13.8 11.1 5.7 58 3.8 W 9 20 5 11 1000.5 1000.3 0.0
30/10:00pm 14.0 11.8 6.4 60 3.7 W 7 20 4 11 999.7 999.5 0.0
30/09:30pm 14.0 12.0 6.4 60 3.7 W 6 15 3 8 999.9 999.7 0.0
30/09:00pm 13.9 11.2 5.8 58 3.9 WNW 9 15 5 8 999.6 999.4 0.0
30/08:30pm 13.6 11.7 6.5 62 3.4 W 6 15 3 8 999.6 999.4 0.0
30/08:00pm 13.5 9.4 6.1 61 3.6 WNW 17 33 9 18 999.2 999.0 0.0
30/07:30pm 13.6 9.9 6.5 62 3.4 WNW 15 26 8 14 998.9 998.7 0.0
30/07:00pm 13.7 9.2 6.3 61 3.6 WNW 19 41 10 22 998.4 998.3 0.0
30/06:30pm 13.9 9.2 6.0 59 3.8 WNW 20 37 11 20 997.9 997.8 0.0
30/06:00pm 14.2 9.6 6.3 59 3.8 WNW 20 41 11 22 997.4 997.3 0.0
30/05:30pm 14.7 10.2 6.3 57 4.1 WNW 19 35 10 19 997.2 997.1 0.0
30/05:00pm 15.4 11.4 6.7 56 4.3 WNW 17 32 9 17 996.7 996.6 0.0
30/04:30pm 15.9 11.5 6.6 54 4.6 WNW 19 35 10 19 996.6 996.5 0.0
30/04:00pm 16.4 11.0 6.2 51 5.0 WNW 24 46 13 25 995.8 995.7 0.0
30/03:37pm 16.6 10.3 5.6 48 5.3 NW 28 46 15 25 995.4 995.3 0.0
30/03:30pm 17.3 11.2 6.8 50 5.2 NW 28 44 15 24 995.3 995.2 0.0
30/03:00pm 17.2 11.3 7.3 52 5.0 NW 28 43 15 23 995.4 995.3 0.0
30/02:30pm 16.7 11.2 7.6 55 4.6 NW 26 41 14 22 995.5 995.4 0.0
30/02:00pm 16.1 11.0 7.8 58 4.2 NW 24 39 13 21 995.7 995.6 0.0
30/01:30pm 15.4 11.2 7.4 59 4.0 NNW 19 35 10 19 996.1 996.0 0.0
30/01:00pm 15.1 10.3 7.2 59 3.9 NNW 22 37 12 20 996.1 996.0 0.0
30/12:30pm 15.3 10.9 7.3 59 4.0 NW 20 37 11 20 996.3 996.2 0.0
30/12:00pm 15.3 9.5 6.3 55 4.4 NW 26 44 14 24 996.4 996.3 0.0
30/11:30am 15.4 9.8 5.6 52 4.7 NW 24 37 13 20 996.4 996.3 0.0
30/11:00am 15.5 10.7 4.8 49 5.1 NW 19 30 10 16 996.4 996.3 0.0
30/10:30am 15.2 9.6 5.4 52 4.7 NW 24 39 13 21 996.5 996.4 0.0
30/10:00am 15.4 11.0 5.0 50 5.0 NW 17 32 9 17 996.5 996.4 0.0
30/09:30am 15.0 10.2 5.5 53 4.5 NNW 20 32 11 17 996.9 996.8 0.0
30/09:00am 14.9 10.1 5.4 53 4.6 NNW 20 33 11 18 997.1 997.0 5.8
30/08:30am 14.0 9.7 5.4 56 4.1 NNW 17 32 9 17 997.0 996.9 5.8
30/08:00am 13.6 9.3 5.3 57 3.9 NNW 17 30 9 16 996.8 996.7 5.8
30/07:30am 13.1 8.4 5.3 59 3.6 NNW 19 28 10 15 996.6 996.5 5.8
30/07:00am 13.1 8.6 4.3 55 4.1 NNW 17 24 9 13 996.5 996.4 5.8
30/06:30am 12.9 8.7 3.8 54 4.1 NNW 15 26 8 14 996.4 996.3 5.8
30/06:00am 12.4 8.2 3.9 56 3.9 NNW 15 19 8 10 996.4 996.3 5.8
30/05:30am 12.0 8.2 4.0 58 3.6 N 13 19 7 10 996.1 996.0 5.8
30/05:00am 11.6 8.5 3.4 57 3.7 NNW 9 13 5 7 996.2 996.1 5.8
30/04:30am 11.9 7.7 3.7 57 3.7 NNW 15 20 8 11 996.0 995.9 5.8
30/04:00am 11.2 8.2 4.2 62 3.2 NW 9 11 5 6 995.9 995.8 5.8
30/03:30am 11.8 8.3 3.6 57 3.7 NNW 11 17 6 9 996.1 996.0 5.8
30/03:00am 13.2 9.7 3.6 52 4.4 NW 11 19 6 10 996.1 996.0 5.8
30/02:30am 13.1 8.5 3.5 52 4.3 NW 17 32 9 17 996.4 996.3 5.8
30/02:00am 12.0 8.5 3.3 55 3.9 NNW 11 15 6 8 996.7 996.6 5.8
30/01:30am 11.4 8.3 3.7 59 3.4 N 9 11 5 6 997.0 996.9 5.8
30/01:00am 12.1 9.1 4.3 59 3.6 NW 9 13 5 7 997.3 997.2 5.8
30/12:30am 13.0 9.3 4.2 55 4.0 NW 13 20 7 11 996.9 996.8 5.8
30/12:00am 13.3 10.3 4.2 54 4.2 WNW 9 13 5 7 997.1 997.0 5.8
 
Date/Time
EST
Temp
°C
App
Temp
°C
Dew
Point
°C
Rel
Hum
%
Delta-T
°C
Wind Press
QNH
hPa
Press
MSL
hPa
Rain since
9am
mm
Dir  Spd
km/h
Gust
km/h
Spd
kts
Gust
kts
29/11:30pm 14.0 11.7 4.6 53 4.4 WNW 6 11 3 6 997.1 997.0 5.8
29/11:00pm 13.8 10.9 4.9 55 4.2 WNW 9 17 5 9 996.9 996.8 5.8
29/10:30pm 13.8 9.9 5.2 56 4.0 NW 15 22 8 12 997.0 996.9 5.8
29/10:00pm 13.7 9.2 4.3 53 4.4 NW 17 28 9 15 997.1 997.0 5.8
29/09:30pm 13.5 9.4 4.4 54 4.2 NNW 15 24 8 13 996.7 996.6 5.8
29/09:00pm 13.6 10.0 5.0 56 4.0 NNW 13 17 7 9 996.4 996.3 5.8
29/08:30pm 14.2 10.6 4.8 53 4.4 NW 13 19 7 10 996.1 996.0 5.8
29/08:00pm 14.9 10.7 5.7 54 4.4 NW 17 24 9 13 996.0 995.9 5.8
29/07:30pm 15.6 12.2 5.8 52 4.7 WNW 13 20 7 11 995.4 995.3 5.8
29/07:00pm 15.9 12.7 4.9 48 5.3 WNW 11 22 6 12 994.9 994.8 5.8
29/06:30pm 16.3 13.7 5.9 50 5.0 WNW 9 15 5 8 994.6 994.5 5.8
29/06:00pm 16.7 13.3 5.9 49 5.3 WNW 13 26 7 14 994.4 994.3 5.8
29/05:30pm 17.5 14.2 4.8 43 6.1 WNW 11 22 6 12 994.4 994.3 5.8
29/05:00pm 17.8 14.8 6.0 46 5.9 W 11 28 6 15 994.0 993.9 5.8
29/04:30pm 17.8 15.0 13.3 75 2.5 N 20 32 11 17 993.7 993.6 5.8
29/04:00pm 18.0 14.7 14.1 78 2.3 N 24 35 13 19 993.2 993.1 5.8
29/03:30pm 18.2 15.3 14.1 77 2.4 N 22 35 12 19 993.2 993.1 5.8
29/03:00pm 18.0 14.5 13.5 75 2.6 N 24 39 13 21 993.0 992.9 5.8
29/02:30pm 17.8 14.8 14.9 83 1.7 N 24 33 13 18 993.1 993.0 5.8
29/02:00pm 16.6 13.1 15.5 93 0.6 N 28 41 15 22 994.1 994.0 5.8
29/01:30pm 15.9 12.7 13.2 84 1.5 N 22 37 12 20 994.8 994.7 4.8
29/01:00pm 16.2 11.4 12.9 81 1.9 N 30 43 16 23 994.6 994.5 4.8
29/12:35pm 16.4 12.4 14.2 87 1.3 N 28 48 15 26 995.0 994.9 4.8
29/12:30pm 15.9 12.3 14.3 90 0.9 N 26 41 14 22 995.0 994.9 4.8
29/12:00pm 15.0 9.8 14.4 96 0.3 NNE 35 54 19 29 995.3 995.2 4.8
29/11:36am 14.5 10.6 14.3 99 0.1 N 28 46 15 25 996.3 996.2 4.6
29/11:30am 14.5 10.2 14.3 99 0.1 N 30 43 16 23 996.4 996.3 4.6
29/11:00am 14.0 10.2 13.7 98 0.2 N 26 39 14 21 996.8 996.7 4.2
29/10:30am 13.5 9.6 13.3 99 0.1 N 26 39 14 21 997.3 997.2 4.0
29/10:00am 13.2 8.8 13.0 99 0.1 N 28 46 15 25 998.6 998.5 3.8
29/09:57am 13.3 9.0 13.1 99 0.1 N 28 46 15 25 998.6 998.5 3.8
29/09:30am 13.6 10.5 13.4 99 0.1 N 22 35 12 19 999.3 999.1 2.0
29/09:00am 14.1 11.2 13.9 99 0.1 N 22 33 12 18 999.7 999.5 6.4
29/08:30am 14.2 11.9 14.0 99 0.1 NNE 19 28 10 15 999.8 999.6 3.8
29/08:00am 14.3 11.7 13.7 96 0.3 N 20 33 11 18 1000.5 1000.3 2.2
29/07:30am 14.7 11.9 13.2 91 0.8 N 20 35 11 19 1000.7 1000.5 0.4
29/07:00am 15.2 13.0 12.2 82 1.6 N 15 28 8 15 1000.8 1000.6 0.0
29/06:30am 15.6 12.0 12.0 79 2.0 N 22 37 12 20 1001.6 1001.5 0.0
29/06:00am 15.6 12.0 12.0 79 2.0 N 22 37 12 20 1002.0 1001.9 0.0
29/05:30am 15.3 11.4 12.2 82 1.7 N 24 37 13 20 1001.7 1001.6 0.0
29/05:00am 15.2 12.1 12.3 83 1.6 N 20 33 11 18 1002.1 1002.0 0.0
29/04:30am 15.0 11.3 11.6 80 1.8 NNE 22 32 12 17 1002.3 1002.2 0.0
29/04:00am 15.0 11.5 10.8 76 2.2 N 20 32 11 17 1003.1 1003.0 0.0
29/03:30am 14.7 11.0 10.3 75 2.3 N 20 32 11 17 1003.8 1003.7 0.0
29/03:00am 14.9 11.2 10.3 74 2.4 N 20 35 11 19 1004.0 1003.9 0.0
29/02:30am 15.0 11.3 10.2 73 2.5 N 20 30 11 16 1004.6 1004.5 0.0
29/02:00am 14.8 10.6 9.8 72 2.6 N 22 33 12 18 1005.5 1005.4 0.0
29/01:30am 14.9 11.1 9.7 71 2.7 N 20 32 11 17 1006.5 1006.4 0.0
29/01:00am 14.7 11.8 9.5 71 2.7 N 15 26 8 14 1006.7 1006.6 0.0
29/12:30am 14.8 12.1 10.2 74 2.4 N 15 24 8 13 1007.4 1007.3 0.0
29/12:00am 14.6 12.1 9.8 73 2.5 N 13 19 7 10 1007.8 1007.7 0.0
 
Date/Time
EST
Temp
°C
App
Temp
°C
Dew
Point
°C
Rel
Hum
%
Delta-T
°C
Wind Press
QNH
hPa
Press
MSL
hPa
Rain since
9am
mm
Dir  Spd
km/h
Gust
km/h
Spd
kts
Gust
kts
28/11:30pm 14.2 12.2 10.0 76 2.2 N 11 17 6 9 1008.4 1008.3 0.0
28/11:00pm 14.6 12.2 10.0 74 2.4 N 13 17 7 9 1008.7 1008.6 0.0
28/10:30pm 15.6 13.0 10.6 72 2.7 N 15 24 8 13 1008.8 1008.7 0.0

Other Formats:

Comma delimited format used in spreadsheet applications
http://www.bom.gov.au/fwo/IDN60801/IDN60801.95940.axf

JavaScript Object Notation format (JSON) in row-major order
http://www.bom.gov.au/fwo/IDN60801/IDN60801.95940.json